OOCL California — VRWC8 — position and weather

sailwx.info

Track history (hours):
 
Tides and Currents Weather Stations Pressure Air Temp Water Temp Dewpoint Dewpoint Depression Visibility Wind Speed Wind Dir Waves Ship Positions

OOCL California

Last reported at 2017-Oct-16 19:47 UTC. Time now 2017-Oct-18 00:18 UTC.
Position N 01°17' E 103°46'.

Length 276 m; beam 40 m; draft 14 m.

Type: Ship. MMSI: 477704000.

Date/timePositionNaut miles runAvg speedWind from/ knotsBaromVisibWave heightAir tempDewpointWater temp
2017-Oct-16 19:47N 01°17' E 103°46'2123.0
2017-Oct-16 18:51N 01°16' E 104°07'513.7
2017-Oct-16 18:31N 01°15' E 104°02'714.0
2017-Oct-16 18:00N 01°13' E 103°56'713.5
2017-Oct-16 17:30N 01°12' E 103°49'5 9.8
2017-Oct-16 17:00N 01°16' E 103°46'2 3.3
2017-Oct-16 16:30N 01°17' E 103°46'0 0.2
2017-Oct-16 15:54N 01°17' E 103°46'0 0.0
2017-Oct-16 15:27N 01°17' E 103°46'0 0.0
2017-Oct-16 14:57N 01°17' E 103°46'0 0.0
2017-Oct-16 13:57N 01°17' E 103°46'0 0.0
2017-Oct-16 13:30N 01°17' E 103°46'0 0.0
2017-Oct-16 13:00N 01°17' E 103°46'0 0.0
2017-Oct-16 12:30N 01°17' E 103°46'0 0.0
2017-Oct-16 12:00N 01°17' E 103°46'0 0.0
2017-Oct-16 11:30N 01°17' E 103°46'0 0.0
2017-Oct-16 11:00N 01°17' E 103°46'0 0.0
2017-Oct-16 10:30N 01°17' E 103°46'0 0.0
2017-Oct-16 10:00N 01°17' E 103°46'0 0.0
2017-Oct-16 09:30N 01°17' E 103°46'0 0.0
2017-Oct-16 09:00N 01°17' E 103°46'0 0.0
2017-Oct-16 08:30N 01°17' E 103°46'0 0.0
2017-Oct-16 08:00N 01°17' E 103°46'0 0.0
2017-Oct-16 07:30N 01°17' E 103°46'0 0.0
2017-Oct-16 07:00N 01°17' E 103°46'0 0.0
2017-Oct-16 06:30N 01°17' E 103°46'0 0.0
2017-Oct-16 06:00N 01°17' E 103°46'0 0.0
2017-Oct-16 05:30N 01°17' E 103°46'0 0.0
2017-Oct-16 05:00N 01°17' E 103°46'0 0.0
2017-Oct-16 04:30N 01°17' E 103°46'0 0.0
2017-Oct-16 04:00N 01°17' E 103°46'1 2.3
2017-Oct-16 03:31N 01°17' E 103°45'2 4.1
2017-Oct-16 03:00N 01°16' E 103°46'4 7.8
2017-Oct-16 02:30N 01°14' E 103°43'611.7
2017-Oct-16 02:01N 01°12' E 103°37'4 7.5
2017-Oct-16 01:30N 01°11' E 103°34'3 5.8
2017-Oct-16 01:00N 01°09' E 103°31'2 3.7
2017-Oct-16 00:25N 01°07' E 103°30'1 1.3
2017-Oct-15 23:58N 01°07' E 103°30'1 1.4
2017-Oct-15 23:13N 01°08' E 103°29'0 0.7
2017-Oct-15 22:58N 01°08' E 103°28'0 0.6
2017-Oct-15 22:28N 01°07' E 103°28'1 0.7
2017-Oct-15 21:40N 01°08' E 103°28'0 1.2
2017-Oct-15 21:28N 01°08' E 103°28'0 0.1
2017-Oct-15 20:13N 01°08' E 103°28'0 0.7
2017-Oct-15 19:59N 01°08' E 103°28'2 4.6
2017-Oct-15 19:30N 01°09' E 103°27'5 9.8
2017-Oct-15 18:59N 01°12' E 103°23'4 9.3
2017-Oct-15 18:30N 01°15' E 103°19'5 9.2
2017-Oct-15 17:58N 01°19' E 103°15'4 9.1
2017-Oct-15 17:30N 01°21' E 103°12'16 9.4
2017-Oct-15 15:47N 01°30' E 102°59'4 9.7
2017-Oct-15 15:23N 01°32' E 102°55'4 9.6
2017-Oct-15 14:58N 01°34' E 102°52'23 9.9
2017-Oct-15 12:39N 01°44' E 102°31'510.5
2017-Oct-15 12:10N 01°46' E 102°26'  
Track history (hours):
 
Tides and Currents Weather Stations Pressure Air Temp Water Temp Dewpoint Dewpoint Depression Visibility Wind Speed Wind Dir Waves Ship Positions

OOCL California

Last reported at 2017-Oct-16 19:47 UTC. Time now 2017-Oct-18 00:18 UTC.
Position N 01°17' E 103°46'.

Length 276 m; beam 40 m; draft 14 m.

Type: Ship. MMSI: 477704000.

Date/timePositionNaut miles runAvg speedWind from/ knotsBaromVisibWave heightAir tempDewpointWater temp
2017-Oct-16 19:47N 01°17' E 103°46'2123.0
2017-Oct-16 18:51N 01°16' E 104°07'513.7
2017-Oct-16 18:31N 01°15' E 104°02'714.0
2017-Oct-16 18:00N 01°13' E 103°56'713.5
2017-Oct-16 17:30N 01°12' E 103°49'5 9.8
2017-Oct-16 17:00N 01°16' E 103°46'2 3.3
2017-Oct-16 16:30N 01°17' E 103°46'0 0.2
2017-Oct-16 15:54N 01°17' E 103°46'0 0.0
2017-Oct-16 15:27N 01°17' E 103°46'0 0.0
2017-Oct-16 14:57N 01°17' E 103°46'0 0.0
2017-Oct-16 13:57N 01°17' E 103°46'0 0.0
2017-Oct-16 13:30N 01°17' E 103°46'0 0.0
2017-Oct-16 13:00N 01°17' E 103°46'0 0.0
2017-Oct-16 12:30N 01°17' E 103°46'0 0.0
2017-Oct-16 12:00N 01°17' E 103°46'0 0.0
2017-Oct-16 11:30N 01°17' E 103°46'0 0.0
2017-Oct-16 11:00N 01°17' E 103°46'0 0.0
2017-Oct-16 10:30N 01°17' E 103°46'0 0.0
2017-Oct-16 10:00N 01°17' E 103°46'0 0.0
2017-Oct-16 09:30N 01°17' E 103°46'0 0.0
2017-Oct-16 09:00N 01°17' E 103°46'0 0.0
2017-Oct-16 08:30N 01°17' E 103°46'0 0.0
2017-Oct-16 08:00N 01°17' E 103°46'0 0.0
2017-Oct-16 07:30N 01°17' E 103°46'0 0.0
2017-Oct-16 07:00N 01°17' E 103°46'0 0.0
2017-Oct-16 06:30N 01°17' E 103°46'0 0.0
2017-Oct-16 06:00N 01°17' E 103°46'0 0.0
2017-Oct-16 05:30N 01°17' E 103°46'0 0.0
2017-Oct-16 05:00N 01°17' E 103°46'0 0.0
2017-Oct-16 04:30N 01°17' E 103°46'0 0.0
2017-Oct-16 04:00N 01°17' E 103°46'1 2.3
2017-Oct-16 03:31N 01°17' E 103°45'2 4.1
2017-Oct-16 03:00N 01°16' E 103°46'4 7.8
2017-Oct-16 02:30N 01°14' E 103°43'611.7
2017-Oct-16 02:01N 01°12' E 103°37'4 7.5
2017-Oct-16 01:30N 01°11' E 103°34'3 5.8
2017-Oct-16 01:00N 01°09' E 103°31'2 3.7
2017-Oct-16 00:25N 01°07' E 103°30'1 1.3
2017-Oct-15 23:58N 01°07' E 103°30'1 1.4
2017-Oct-15 23:13N 01°08' E 103°29'0 0.7
2017-Oct-15 22:58N 01°08' E 103°28'0 0.6
2017-Oct-15 22:28N 01°07' E 103°28'1 0.7
2017-Oct-15 21:40N 01°08' E 103°28'0 1.2
2017-Oct-15 21:28N 01°08' E 103°28'0 0.1
2017-Oct-15 20:13N 01°08' E 103°28'0 0.7
2017-Oct-15 19:59N 01°08' E 103°28'2 4.6
2017-Oct-15 19:30N 01°09' E 103°27'5 9.8
2017-Oct-15 18:59N 01°12' E 103°23'4 9.3
2017-Oct-15 18:30N 01°15' E 103°19'5 9.2
2017-Oct-15 17:58N 01°19' E 103°15'4 9.1
2017-Oct-15 17:30N 01°21' E 103°12'16 9.4
2017-Oct-15 15:47N 01°30' E 102°59'4 9.7
2017-Oct-15 15:23N 01°32' E 102°55'4 9.6
2017-Oct-15 14:58N 01°34' E 102°52'23 9.9
2017-Oct-15 12:39N 01°44' E 102°31'510.5
2017-Oct-15 12:10N 01°46' E 102°26'  

Dump ship's entire track history